createdAt,value
2023-02-02T00:00:05.239Z,228.20
2023-02-02T00:02:36.193Z,232.10
2023-02-02T00:05:06.750Z,234.07
2023-02-02T00:07:37.438Z,228.15
2023-02-02T00:10:08.372Z,221.25
2023-02-02T00:12:42.605Z,223.90
2023-02-02T00:15:10.965Z,225.27
2023-02-02T00:17:38.628Z,212.93
2023-02-02T00:31:02.503Z,192.93
2023-02-02T00:33:30.279Z,219.30
2023-02-02T00:35:58.216Z,238.93
2023-02-02T00:38:25.969Z,242.50
2023-02-02T00:40:54.846Z,255.90
2023-02-02T00:43:22.435Z,245.25
2023-02-02T00:46:00.404Z,256.02
2023-02-02T00:48:37.818Z,281.52
2023-02-02T00:53:41.521Z,319.50
2023-02-02T00:56:10.568Z,301.52
2023-02-02T00:58:38.335Z,313.85
2023-02-02T01:01:08.860Z,299.02
2023-02-02T01:03:39.031Z,268.73
2023-02-02T01:06:09.161Z,243.25
2023-02-02T01:08:36.736Z,247.93
2023-02-02T01:11:04.590Z,241.75
2023-02-02T01:13:34.811Z,249.25
2023-02-02T01:16:02.693Z,239.05
2023-02-02T01:18:30.468Z,241.63
2023-02-02T01:21:01.882Z,264.58
2023-02-02T01:23:32.059Z,262.23
2023-02-02T01:26:00.195Z,271.67
2023-02-02T01:28:27.873Z,277.52
2023-02-02T01:30:55.724Z,256.98
2023-02-02T01:33:23.306Z,250.57
2023-02-02T01:35:53.996Z,243.00
2023-02-02T01:38:21.818Z,233.77
2023-02-02T01:40:50.566Z,226.30
2023-02-02T01:43:25.365Z,225.77
2023-02-02T01:45:55.794Z,226.18
2023-02-02T01:48:24.462Z,223.40
2023-02-02T01:50:52.387Z,219.05
2023-02-02T01:53:22.708Z,224.20
2023-02-02T01:55:50.235Z,213.93
2023-02-02T01:58:23.299Z,211.65
2023-02-02T02:00:50.923Z,261.23
2023-02-02T02:03:19.631Z,249.43
2023-02-02T02:05:51.927Z,254.20
2023-02-02T02:08:20.517Z,254.32
2023-02-02T02:10:48.057Z,218.77
2023-02-02T02:13:15.968Z,212.30
2023-02-02T02:16:11.151Z,213.23
2023-02-02T02:19:01.392Z,212.77
2023-02-02T02:21:47.529Z,219.82
2023-02-02T02:25:00.120Z,195.60
2023-02-02T02:27:57.267Z,189.60
2023-02-02T02:30:34.816Z,190.38
2023-02-02T02:33:04.545Z,198.07
2023-02-02T02:38:19.395Z,181.40
2023-02-02T02:40:55.271Z,189.07
2023-02-02T02:43:25.050Z,168.30
2023-02-02T02:48:20.234Z,158.70
2023-02-02T02:50:47.829Z,146.57
2023-02-02T02:53:16.822Z,137.70
2023-02-02T02:55:48.044Z,135.32
2023-02-02T02:58:18.235Z,145.80
2023-02-02T03:00:49.851Z,150.30
2023-02-02T03:03:20.881Z,161.10
2023-02-02T03:05:57.329Z,165.65
2023-02-02T03:08:33.511Z,147.35
2023-02-02T03:11:02.450Z,155.20
2023-02-02T03:13:30.053Z,144.75
2023-02-02T03:15:57.510Z,150.57
2023-02-02T03:18:26.276Z,151.77
2023-02-02T03:20:53.828Z,148.70
2023-02-02T03:23:21.323Z,156.13
2023-02-02T03:25:48.947Z,150.55
2023-02-02T03:28:20.097Z,146.48
2023-02-02T03:30:47.796Z,149.20
2023-02-02T03:33:15.734Z,158.85
2023-02-02T03:35:43.432Z,156.07
2023-02-02T03:38:10.917Z,163.50
2023-02-02T03:40:38.582Z,159.07
2023-02-02T03:43:06.501Z,164.00
2023-02-02T03:45:35.724Z,153.35
2023-02-02T03:48:07.737Z,137.13
2023-02-02T03:50:35.486Z,133.02
2023-02-02T03:53:03.013Z,137.57
2023-02-02T03:55:30.673Z,128.93
2023-02-02T03:57:58.266Z,112.53
2023-02-02T04:00:25.872Z,106.10
2023-02-02T04:02:55.178Z,110.63
2023-02-02T04:05:23.062Z,104.25
2023-02-02T04:07:50.633Z,100.75
2023-02-02T04:10:18.767Z,97.82
2023-02-02T04:12:46.323Z,105.30
2023-02-02T04:15:13.951Z,96.60
2023-02-02T04:17:41.427Z,101.63
2023-02-02T04:20:09.362Z,109.68
2023-02-02T04:22:36.914Z,99.18
2023-02-02T04:25:04.815Z,100.20
2023-02-02T04:27:34.345Z,103.50
2023-02-02T04:30:01.878Z,101.90
2023-02-02T04:32:29.442Z,103.57
2023-02-02T04:34:57.030Z,110.80
2023-02-02T04:37:24.549Z,107.63
2023-02-02T04:39:53.141Z,115.68
2023-02-02T04:42:20.860Z,113.57
2023-02-02T04:44:48.398Z,102.00
2023-02-02T04:47:15.977Z,111.57
2023-02-02T04:49:43.646Z,109.57
2023-02-02T04:52:14.224Z,113.93
2023-02-02T04:54:41.780Z,111.88
2023-02-02T04:57:09.371Z,120.50
2023-02-02T04:59:37.044Z,111.53
2023-02-02T05:02:04.660Z,110.38
2023-02-02T05:04:32.462Z,128.40
2023-02-02T05:07:00.239Z,123.38
2023-02-02T05:09:31.267Z,129.70
2023-02-02T05:11:59.440Z,132.57
2023-02-02T05:14:27.109Z,128.82
2023-02-02T05:16:54.723Z,122.25
2023-02-02T05:19:22.474Z,115.95
2023-02-02T05:21:54.953Z,168.60
2023-02-02T05:24:32.073Z,185.00
2023-02-02T05:27:01.309Z,203.57
2023-02-02T05:29:29.462Z,281.98
2023-02-02T05:31:57.312Z,263.52
2023-02-02T05:34:25.154Z,264.50
2023-02-02T05:36:55.089Z,224.40
2023-02-02T05:39:22.620Z,174.05
2023-02-02T05:41:50.355Z,163.80
2023-02-02T05:44:17.913Z,160.38
2023-02-02T05:46:47.298Z,159.75
2023-02-02T05:49:15.064Z,167.57
2023-02-02T05:51:44.407Z,157.02
2023-02-02T05:54:12.495Z,189.98
2023-02-02T05:56:40.014Z,172.68
2023-02-02T05:59:09.802Z,160.00
2023-02-02T06:04:04.926Z,175.07
2023-02-02T06:06:32.629Z,188.35
2023-02-02T06:09:00.245Z,183.35
2023-02-02T06:11:27.883Z,194.52
2023-02-02T06:13:55.594Z,179.25
2023-02-02T06:16:23.291Z,183.15
2023-02-02T06:18:50.876Z,177.02
2023-02-02T06:21:20.151Z,167.52
2023-02-02T06:23:47.713Z,165.93
2023-02-02T06:26:18.845Z,173.98
2023-02-02T06:28:49.400Z,168.27
2023-02-02T06:31:19.700Z,169.45
2023-02-02T06:34:15.043Z,163.05
2023-02-02T06:36:45.747Z,155.38
2023-02-02T06:39:16.577Z,172.20
2023-02-02T06:41:48.477Z,170.55
2023-02-02T06:44:16.622Z,170.57
2023-02-02T06:46:44.465Z,183.63
2023-02-02T06:49:12.181Z,210.68
2023-02-02T06:51:39.868Z,202.70
2023-02-02T06:54:07.446Z,197.73
2023-02-02T06:56:35.075Z,210.00
2023-02-02T06:59:02.634Z,201.60
2023-02-02T07:01:33.842Z,167.50
2023-02-02T07:04:01.431Z,169.02
2023-02-02T07:06:29.302Z,165.57
2023-02-02T07:09:05.928Z,172.02
2023-02-02T07:11:39.119Z,194.02
2023-02-02T07:14:11.500Z,206.68
2023-02-02T07:16:44.791Z,227.52
2023-02-02T07:19:12.460Z,193.50
2023-02-02T07:21:40.744Z,185.95
2023-02-02T07:24:08.558Z,181.32
2023-02-02T07:26:36.697Z,188.18
2023-02-02T07:29:04.853Z,181.52
2023-02-02T07:31:36.496Z,216.13
2023-02-02T07:34:04.661Z,226.93
2023-02-02T07:36:32.342Z,210.68
2023-02-02T07:39:06.157Z,218.30
2023-02-02T07:41:37.358Z,185.30
2023-02-02T07:44:09.335Z,179.68
2023-02-02T07:46:40.227Z,185.60
2023-02-02T07:49:08.047Z,167.18
2023-02-02T07:51:38.044Z,179.60
2023-02-02T07:54:14.543Z,166.20
2023-02-02T07:56:42.248Z,176.10
2023-02-02T08:01:59.344Z,155.10
2023-02-02T08:04:27.577Z,149.95
2023-02-02T08:06:55.458Z,145.88
2023-02-02T08:09:23.120Z,147.52
2023-02-02T08:12:02.319Z,141.45
2023-02-02T08:22:32.421Z,100.70
2023-02-02T08:25:00.216Z,95.18
2023-02-02T08:27:28.177Z,69.32
2023-02-02T08:29:55.852Z,27.35
2023-02-02T08:32:23.446Z,20.80
2023-02-02T08:34:52.095Z,20.38
2023-02-02T08:37:20.047Z,16.55
2023-02-02T08:39:50.648Z,19.33
2023-02-02T08:42:18.220Z,21.70
2023-02-02T08:45:57.926Z,15.35
2023-02-02T08:47:33.441Z,13.45
2023-02-02T08:50:04.735Z,14.60
2023-02-02T08:52:32.223Z,12.32
2023-02-02T08:55:02.906Z,14.63
2023-02-02T08:57:33.635Z,11.68
2023-02-02T09:00:01.360Z,12.90
2023-02-02T09:02:29.036Z,13.50
2023-02-02T09:04:56.672Z,10.90
2023-02-02T09:07:24.253Z,14.35
2023-02-02T09:09:52.905Z,12.88
2023-02-02T09:12:23.062Z,17.65
2023-02-02T09:14:51.325Z,16.13
2023-02-02T09:17:18.990Z,12.85
2023-02-02T09:19:46.559Z,13.25
2023-02-02T09:22:14.153Z,12.63
2023-02-02T09:24:44.705Z,13.13
2023-02-02T09:27:12.257Z,13.57
2023-02-02T09:29:39.727Z,13.57
2023-02-02T09:32:07.935Z,20.10
2023-02-02T09:34:35.483Z,12.15
2023-02-02T09:37:03.114Z,10.57
2023-02-02T09:39:31.940Z,12.98
2023-02-02T09:42:10.782Z,16.58
2023-02-02T09:44:41.284Z,21.75
2023-02-02T09:47:19.042Z,15.90
2023-02-02T09:50:03.451Z,15.23
2023-02-02T09:52:57.661Z,12.25
2023-02-02T09:55:31.640Z,15.45
2023-02-02T09:58:19.308Z,17.40
2023-02-02T10:00:50.170Z,19.75
2023-02-02T10:03:22.551Z,20.90
2023-02-02T10:05:52.292Z,16.42
2023-02-02T10:08:34.301Z,20.60
2023-02-02T10:11:03.346Z,18.42
2023-02-02T10:13:34.779Z,19.80
2023-02-02T10:16:09.050Z,19.67
2023-02-02T10:18:36.669Z,15.35
2023-02-02T10:21:14.167Z,10.88
2023-02-02T10:23:42.530Z,11.05
2023-02-02T10:26:13.448Z,9.70
2023-02-02T10:28:40.975Z,9.85
2023-02-02T10:31:13.137Z,17.70
2023-02-02T10:33:40.915Z,9.80
2023-02-02T10:36:21.102Z,10.10
2023-02-02T10:38:53.271Z,10.98
2023-02-02T10:41:24.329Z,15.88
2023-02-02T10:44:10.897Z,13.45
2023-02-02T10:49:28.380Z,9.32
2023-02-02T10:51:58.298Z,9.95
2023-02-02T10:54:54.961Z,10.65
2023-02-02T10:57:32.996Z,10.75
2023-02-02T11:00:07.805Z,18.67
2023-02-02T11:02:35.954Z,9.25
2023-02-02T11:05:21.763Z,8.52
2023-02-02T11:07:49.386Z,13.23
2023-02-02T11:10:17.071Z,9.43
2023-02-02T11:12:46.905Z,14.98
2023-02-02T11:15:35.313Z,14.93
2023-02-02T11:18:38.434Z,16.47
2023-02-02T11:21:36.232Z,18.27
2023-02-02T11:24:22.135Z,13.45
2023-02-02T11:26:51.412Z,13.98
2023-02-02T11:29:21.679Z,16.77
2023-02-02T11:31:49.620Z,13.60
2023-02-02T11:34:20.696Z,16.83
2023-02-02T11:37:14.763Z,15.43
2023-02-02T11:39:42.945Z,12.32
2023-02-02T11:42:25.591Z,19.13
2023-02-02T11:44:57.226Z,15.38
2023-02-02T11:47:28.764Z,18.45
2023-02-02T11:52:32.825Z,14.43
2023-02-02T11:55:03.850Z,17.38
2023-02-02T11:57:31.959Z,14.10
2023-02-02T12:00:15.606Z,19.02
2023-02-02T12:08:15.007Z,19.05
2023-02-02T12:10:43.462Z,23.30
2023-02-02T12:13:16.500Z,23.25
2023-02-02T12:16:09.056Z,20.25
2023-02-02T12:19:26.791Z,24.83
2023-02-02T12:21:57.282Z,22.25
2023-02-02T12:30:00.769Z,33.00
2023-02-02T12:32:48.749Z,25.60
2023-02-02T12:35:23.460Z,26.15
2023-02-02T12:38:17.743Z,31.08
2023-02-02T12:40:51.236Z,30.63
2023-02-02T12:43:34.345Z,29.27
2023-02-02T12:55:13.985Z,35.55
2023-02-02T13:00:14.250Z,40.15
2023-02-02T13:03:23.325Z,47.22
2023-02-02T13:28:11.659Z,53.42
2023-02-02T13:30:42.218Z,40.67
2023-02-02T13:33:32.858Z,48.05
2023-02-02T13:36:03.700Z,45.25
2023-02-02T13:38:31.418Z,35.53
2023-02-02T13:41:00.499Z,35.03
2023-02-02T13:43:30.483Z,39.80
2023-02-02T13:46:14.076Z,49.92
2023-02-02T13:49:03.495Z,36.58
2023-02-02T13:54:44.734Z,33.75
2023-02-02T13:57:12.711Z,26.35
2023-02-02T14:00:03.689Z,33.63
2023-02-02T14:05:07.553Z,42.10
2023-02-02T14:26:51.557Z,28.23
2023-02-02T14:29:36.697Z,25.45
2023-02-02T14:32:24.773Z,44.60
2023-02-02T14:34:56.538Z,33.88
2023-02-02T14:37:33.828Z,25.65
2023-02-02T14:40:10.252Z,31.38
2023-02-02T14:43:03.147Z,38.60
2023-02-02T14:45:34.441Z,30.55
2023-02-02T14:48:25.430Z,36.22
2023-02-02T14:50:55.983Z,29.85
2023-02-02T14:53:30.357Z,29.60
2023-02-02T14:55:59.480Z,41.63
2023-02-02T14:58:27.202Z,32.22
2023-02-02T15:00:59.782Z,31.60
2023-02-02T15:03:35.444Z,15.73
2023-02-02T15:06:04.017Z,15.13
2023-02-02T15:08:31.682Z,31.40
2023-02-02T15:11:25.649Z,21.00
2023-02-02T15:13:56.199Z,24.15
2023-02-02T15:16:25.956Z,18.42
2023-02-02T15:18:58.577Z,19.02
2023-02-02T15:21:28.993Z,20.35
2023-02-02T15:23:59.076Z,24.08
2023-02-02T15:26:34.473Z,24.17
2023-02-02T15:29:02.939Z,50.75
2023-02-02T15:31:30.834Z,20.25
2023-02-02T15:33:59.658Z,22.77
2023-02-02T15:36:33.003Z,21.75
2023-02-02T15:42:16.074Z,24.52
2023-02-02T15:44:53.147Z,21.65
2023-02-02T15:47:21.270Z,17.90
2023-02-02T15:49:48.905Z,20.88
2023-02-02T15:52:17.365Z,16.33
2023-02-02T15:54:52.689Z,19.58
2023-02-02T15:57:33.247Z,14.07
2023-02-02T16:00:01.170Z,13.07
2023-02-02T16:02:31.693Z,12.18
2023-02-02T16:05:09.345Z,13.13
2023-02-02T16:07:37.075Z,17.10
2023-02-02T16:10:08.084Z,14.73
2023-02-02T16:12:35.731Z,16.30
2023-02-02T16:15:03.667Z,18.23
2023-02-02T16:17:32.084Z,19.35
2023-02-02T16:20:19.684Z,25.17
2023-02-02T16:22:51.547Z,35.33
2023-02-02T16:25:20.414Z,122.43
2023-02-02T16:27:48.664Z,95.57
2023-02-02T16:30:43.350Z,76.25
2023-02-02T16:33:29.214Z,53.65
2023-02-02T16:35:56.793Z,48.15
2023-02-02T16:38:25.864Z,45.17
2023-02-02T16:41:12.398Z,33.58
2023-02-02T16:43:40.497Z,39.92
2023-02-02T16:46:09.752Z,62.67
2023-02-02T16:48:37.262Z,74.47
2023-02-02T16:51:08.829Z,92.03
2023-02-02T16:53:36.520Z,87.05
2023-02-02T16:56:07.372Z,76.43
2023-02-02T16:58:35.851Z,92.78
2023-02-02T17:01:15.947Z,94.72
2023-02-02T17:03:49.178Z,89.80
2023-02-02T17:06:16.688Z,73.78
2023-02-02T17:08:44.335Z,59.90
2023-02-02T17:11:25.246Z,116.32
2023-02-02T17:13:53.144Z,128.25
2023-02-02T17:16:23.632Z,118.85
2023-02-02T17:18:51.734Z,125.78
2023-02-02T17:21:21.080Z,133.07
2023-02-02T17:23:48.600Z,151.55
2023-02-02T17:26:17.198Z,153.70
2023-02-02T17:28:44.641Z,149.90
2023-02-02T17:31:18.669Z,124.88
2023-02-02T17:33:46.218Z,139.52
2023-02-02T17:36:13.638Z,125.85
2023-02-02T17:38:41.189Z,114.50
2023-02-02T17:41:08.813Z,121.10
2023-02-02T17:43:36.387Z,141.57
2023-02-02T17:46:04.476Z,160.32
2023-02-02T17:54:07.783Z,117.97
2023-02-02T17:56:36.983Z,119.22
2023-02-02T17:59:04.571Z,125.28
2023-02-02T18:01:32.233Z,171.10
2023-02-02T18:03:59.764Z,164.30
2023-02-02T18:06:27.430Z,172.65
2023-02-02T18:08:54.858Z,187.10
2023-02-02T18:11:23.217Z,121.18
2023-02-02T18:13:52.126Z,88.28
2023-02-02T18:16:20.082Z,93.70
2023-02-02T18:18:47.612Z,194.25
2023-02-02T18:21:15.026Z,233.70
2023-02-02T18:23:42.575Z,229.98
2023-02-02T18:26:13.981Z,245.85
2023-02-02T18:28:42.534Z,204.30
2023-02-02T18:31:11.290Z,244.50
2023-02-02T18:33:40.828Z,187.30
2023-02-02T18:36:10.734Z,249.63
2023-02-02T18:38:38.901Z,242.80
2023-02-02T18:41:06.553Z,186.63
2023-02-02T18:43:34.133Z,191.02
2023-02-02T18:46:04.628Z,235.88
2023-02-02T18:48:32.215Z,205.02
2023-02-02T18:50:59.822Z,183.80
2023-02-02T18:53:27.989Z,171.75
2023-02-02T18:55:55.902Z,159.00
2023-02-02T18:58:23.344Z,158.77
2023-02-02T19:00:52.247Z,178.10
2023-02-02T19:03:20.059Z,193.98
2023-02-02T19:06:06.018Z,226.73
2023-02-02T19:08:33.913Z,239.45
2023-02-02T19:11:01.851Z,253.63
2023-02-02T19:13:29.492Z,261.42
2023-02-02T19:15:58.423Z,254.00
2023-02-02T19:18:26.299Z,263.15
2023-02-02T19:20:53.967Z,254.27
2023-02-02T19:23:25.402Z,241.57
2023-02-02T19:25:54.316Z,248.75
2023-02-02T19:28:27.543Z,255.82
2023-02-02T19:30:56.575Z,243.75
2023-02-02T19:33:35.157Z,213.48
2023-02-02T19:36:07.215Z,162.10
2023-02-02T19:38:43.667Z,94.85
2023-02-02T19:41:15.658Z,78.90
2023-02-02T19:43:47.838Z,83.68
2023-02-02T19:46:17.616Z,63.67
2023-02-02T19:48:50.607Z,29.58
2023-02-02T19:51:47.474Z,22.95
2023-02-02T19:54:21.055Z,18.45
2023-02-02T19:56:49.812Z,17.67
2023-02-02T19:59:18.964Z,11.73
2023-02-02T20:01:49.223Z,18.38
2023-02-02T20:13:18.735Z,16.70
2023-02-02T20:15:47.073Z,19.88
2023-02-02T20:18:35.047Z,23.00
2023-02-02T20:21:02.679Z,22.30
2023-02-02T20:23:44.708Z,17.27
2023-02-02T20:26:22.681Z,14.85
2023-02-02T20:28:50.520Z,12.13
2023-02-02T20:31:19.367Z,10.10
2023-02-02T20:33:49.956Z,13.57
2023-02-02T20:36:31.207Z,12.18
2023-02-02T20:39:03.911Z,12.77
2023-02-02T20:41:31.486Z,9.95
2023-02-02T20:43:58.934Z,18.08
2023-02-02T20:46:26.707Z,11.77
2023-02-02T20:48:54.227Z,17.27
2023-02-02T20:51:21.726Z,22.35
2023-02-02T20:53:49.332Z,37.85
2023-02-02T20:56:16.837Z,37.75
2023-02-02T20:58:44.292Z,27.00
2023-02-02T21:01:11.885Z,26.27
2023-02-02T21:03:39.526Z,25.17
2023-02-02T21:06:07.150Z,25.63
2023-02-02T21:08:34.582Z,30.23
2023-02-02T21:11:01.985Z,36.30
2023-02-02T21:13:30.393Z,30.40
2023-02-02T21:15:57.924Z,37.83
2023-02-02T21:18:25.637Z,35.03
2023-02-02T21:20:53.102Z,25.90
2023-02-02T21:23:21.893Z,33.38
2023-02-02T21:25:49.485Z,37.97
2023-02-02T21:28:17.080Z,29.70
2023-02-02T21:30:44.953Z,28.45
2023-02-02T21:33:13.194Z,20.35
2023-02-02T21:35:41.057Z,20.10
2023-02-02T21:38:11.759Z,16.98
2023-02-02T21:40:39.540Z,20.15
2023-02-02T21:43:11.601Z,19.55
2023-02-02T21:45:42.034Z,17.15
2023-02-02T21:48:23.402Z,21.70
2023-02-02T21:50:50.913Z,14.05
2023-02-02T21:53:21.311Z,11.95
2023-02-02T21:55:58.027Z,14.10
2023-02-02T21:58:37.196Z,15.30
2023-02-02T22:01:23.915Z,17.50
2023-02-02T22:03:52.273Z,16.08
2023-02-02T22:06:22.703Z,13.63
2023-02-02T22:08:50.781Z,11.00
2023-02-02T22:11:21.400Z,10.27
2023-02-02T22:13:49.038Z,14.57
2023-02-02T22:16:20.982Z,21.35
2023-02-02T22:18:48.597Z,20.92
2023-02-02T22:21:18.825Z,25.40
2023-02-02T22:23:50.561Z,25.42
2023-02-02T22:26:25.465Z,31.30
2023-02-02T22:28:52.929Z,27.27
2023-02-02T22:31:20.564Z,32.78
2023-02-02T22:33:48.037Z,37.88
2023-02-02T22:36:15.410Z,32.30
2023-02-02T22:38:43.208Z,26.70
2023-02-02T22:41:10.711Z,24.90
2023-02-02T22:43:38.199Z,27.27
2023-02-02T22:46:06.000Z,31.80
2023-02-02T22:48:33.547Z,34.60
2023-02-02T22:51:01.138Z,35.80
2023-02-02T22:53:28.629Z,33.22
2023-02-02T22:55:56.835Z,49.92
2023-02-02T22:58:24.997Z,47.22
2023-02-02T23:00:52.410Z,47.95
2023-02-02T23:03:19.974Z,52.67
2023-02-02T23:05:47.365Z,45.85
2023-02-02T23:08:15.099Z,46.80
2023-02-02T23:10:42.603Z,39.08
2023-02-02T23:13:10.126Z,41.10
2023-02-02T23:15:37.638Z,36.97
2023-02-02T23:18:05.153Z,35.60
2023-02-02T23:20:32.618Z,33.28
2023-02-02T23:23:00.121Z,30.38
2023-02-02T23:25:27.470Z,36.25
2023-02-02T23:27:54.970Z,28.33
2023-02-02T23:30:24.681Z,29.63
2023-02-02T23:32:53.269Z,27.65
2023-02-02T23:35:20.762Z,29.10
2023-02-02T23:37:48.413Z,29.90
2023-02-02T23:40:15.881Z,24.42
2023-02-02T23:42:43.305Z,23.73
2023-02-02T23:45:10.998Z,25.13
2023-02-02T23:47:38.483Z,26.60
2023-02-02T23:50:06.663Z,23.70
2023-02-02T23:52:36.577Z,33.08
2023-02-02T23:55:04.208Z,37.40
2023-02-02T23:57:33.912Z,40.95
